createdAt,value
2019-04-30T00:00:57.843Z,92.60
2019-04-30T00:03:43.590Z,92.90
2019-04-30T00:06:19.984Z,92.60
2019-04-30T00:08:57.445Z,92.60
2019-04-30T00:11:32.201Z,93.20
2019-04-30T00:14:07.637Z,93.30
2019-04-30T00:16:45.039Z,93.20
2019-04-30T00:19:20.078Z,93.20
2019-04-30T00:22:00.106Z,93.10
2019-04-30T00:24:32.480Z,92.80
2019-04-30T00:27:08.316Z,93.30
2019-04-30T00:29:45.637Z,92.70
2019-04-30T00:32:20.825Z,92.60
2019-04-30T00:34:57.700Z,92.60
2019-04-30T00:37:32.129Z,92.40
2019-04-30T00:40:07.702Z,92.50
2019-04-30T00:42:45.665Z,92.40
2019-04-30T00:45:20.588Z,92.60
2019-04-30T00:47:56.348Z,92.90
2019-04-30T00:50:33.936Z,93.30
2019-04-30T00:53:12.380Z,92.80
2019-04-30T00:55:48.450Z,92.80
2019-04-30T00:58:29.036Z,93.10
2019-04-30T01:01:16.368Z,92.90
2019-04-30T01:04:08.516Z,93.00
2019-04-30T01:06:48.508Z,92.10
2019-04-30T01:09:26.190Z,92.40
2019-04-30T01:12:05.779Z,92.70
2019-04-30T01:14:41.591Z,92.90
2019-04-30T01:17:18.765Z,93.10
2019-04-30T01:19:55.027Z,92.80
2019-04-30T01:22:35.102Z,92.90
2019-04-30T01:25:13.470Z,92.30
2019-04-30T01:27:50.582Z,92.40
2019-04-30T01:30:28.483Z,92.90
2019-04-30T01:33:02.923Z,92.30
2019-04-30T01:35:40.563Z,92.10
2019-04-30T01:38:15.112Z,92.20
2019-04-30T01:40:52.248Z,92.60
2019-04-30T01:43:33.510Z,92.10
2019-04-30T01:46:13.896Z,92.70
2019-04-30T01:48:50.588Z,92.80
2019-04-30T01:51:29.590Z,92.20
2019-04-30T01:54:09.164Z,92.60
2019-04-30T01:56:55.805Z,91.50
2019-04-30T01:59:35.524Z,91.70
2019-04-30T02:02:12.808Z,91.90
2019-04-30T02:04:49.236Z,91.50
2019-04-30T02:07:25.242Z,91.40
2019-04-30T02:10:00.985Z,91.20
2019-04-30T02:12:41.190Z,91.30
2019-04-30T02:15:16.787Z,91.20
2019-04-30T02:17:52.645Z,91.70
2019-04-30T02:20:28.673Z,91.50
2019-04-30T02:23:06.549Z,91.50
2019-04-30T02:25:42.138Z,91.80
2019-04-30T02:28:19.518Z,91.30
2019-04-30T02:30:55.139Z,92.00
2019-04-30T02:33:33.687Z,91.70
2019-04-30T02:36:10.510Z,92.20
2019-04-30T02:38:56.155Z,91.90
2019-04-30T02:41:31.605Z,92.00
2019-04-30T02:44:09.690Z,91.60
2019-04-30T02:46:46.296Z,91.00
2019-04-30T02:49:23.617Z,91.60
2019-04-30T02:52:03.353Z,91.80
2019-04-30T02:54:52.777Z,91.60
2019-04-30T02:57:29.958Z,91.70
2019-04-30T03:00:20.272Z,91.90
2019-04-30T03:02:56.123Z,92.10
2019-04-30T03:05:34.320Z,92.30
2019-04-30T03:08:25.824Z,92.30
2019-04-30T03:11:03.069Z,91.50
2019-04-30T03:13:42.886Z,91.70
2019-04-30T03:16:20.757Z,91.60
2019-04-30T03:19:00.736Z,92.20
2019-04-30T03:21:43.352Z,92.00
2019-04-30T03:24:20.128Z,92.00
2019-04-30T03:26:59.442Z,91.70
2019-04-30T03:29:34.139Z,91.80
2019-04-30T03:32:13.323Z,91.50
2019-04-30T03:34:51.756Z,91.40
2019-04-30T03:37:25.279Z,92.00
2019-04-30T03:40:00.876Z,92.00
2019-04-30T03:42:39.511Z,92.40
2019-04-30T03:45:13.432Z,92.30
2019-04-30T03:47:50.512Z,92.20
2019-04-30T03:50:32.873Z,92.60
2019-04-30T03:53:06.688Z,92.40
2019-04-30T03:55:42.383Z,92.20
2019-04-30T03:58:21.213Z,91.90
2019-04-30T04:01:03.041Z,92.30
2019-04-30T04:03:42.150Z,92.80
2019-04-30T04:06:29.132Z,92.20
2019-04-30T04:09:21.744Z,92.20
2019-04-30T04:11:55.420Z,92.10
2019-04-30T04:14:32.678Z,91.70
2019-04-30T04:17:09.853Z,91.80
2019-04-30T04:19:45.516Z,92.10
2019-04-30T04:22:22.492Z,91.90
2019-04-30T04:25:00.000Z,91.40
2019-04-30T04:27:34.707Z,92.10
2019-04-30T04:30:13.097Z,91.70
2019-04-30T04:32:50.151Z,91.60
2019-04-30T04:35:25.679Z,91.80
2019-04-30T04:38:01.592Z,91.70
2019-04-30T04:40:41.120Z,91.20
2019-04-30T04:43:16.589Z,91.40
2019-04-30T04:45:55.605Z,91.30
2019-04-30T04:48:31.342Z,91.40
2019-04-30T04:51:14.418Z,91.50
2019-04-30T04:53:43.817Z,91.20
2019-04-30T04:56:19.661Z,91.30
2019-04-30T04:58:55.264Z,91.30
2019-04-30T05:01:32.407Z,91.30
2019-04-30T05:04:13.198Z,90.70
2019-04-30T05:06:49.763Z,89.70
2019-04-30T05:09:28.601Z,90.00
2019-04-30T05:12:08.152Z,90.10
2019-04-30T05:14:59.949Z,90.00
2019-04-30T05:18:02.624Z,89.50
2019-04-30T05:20:39.918Z,88.90
2019-04-30T05:23:21.921Z,88.00
2019-04-30T05:25:59.006Z,89.00
2019-04-30T05:28:44.921Z,89.30
2019-04-30T05:31:22.192Z,89.50
2019-04-30T05:34:00.177Z,88.70
2019-04-30T05:36:54.009Z,89.10
2019-04-30T05:39:33.730Z,89.10
2019-04-30T05:42:11.410Z,90.10
2019-04-30T05:44:50.350Z,90.10
2019-04-30T05:47:26.491Z,89.20
2019-04-30T05:50:02.574Z,89.20
2019-04-30T05:52:41.443Z,88.60
2019-04-30T05:55:19.839Z,89.10
2019-04-30T05:57:56.566Z,89.20
2019-04-30T06:00:32.830Z,89.50
2019-04-30T06:03:09.435Z,90.30
2019-04-30T06:05:49.189Z,90.60
2019-04-30T06:08:30.012Z,90.30
2019-04-30T06:11:09.378Z,90.50
2019-04-30T06:13:49.152Z,90.80
2019-04-30T06:16:27.585Z,90.60
2019-04-30T06:19:04.645Z,90.90
2019-04-30T06:21:51.927Z,91.10
2019-04-30T06:24:36.547Z,90.40
2019-04-30T06:27:12.921Z,90.50
2019-04-30T06:29:49.024Z,90.90
2019-04-30T06:32:25.310Z,90.70
2019-04-30T06:35:05.163Z,90.40
2019-04-30T06:37:48.706Z,90.50
2019-04-30T06:40:22.984Z,90.20
2019-04-30T06:43:00.843Z,89.20
2019-04-30T06:45:38.803Z,90.20
2019-04-30T06:48:19.866Z,89.30
2019-04-30T06:50:58.915Z,89.10
2019-04-30T06:53:35.709Z,90.00
2019-04-30T06:56:12.774Z,89.50
2019-04-30T06:58:52.940Z,89.50
2019-04-30T07:01:33.734Z,90.30
2019-04-30T07:04:10.488Z,90.40
2019-04-30T07:06:46.210Z,90.40
2019-04-30T07:09:39.804Z,90.40
2019-04-30T07:12:27.062Z,90.20
2019-04-30T07:14:59.223Z,90.40
2019-04-30T07:17:35.386Z,90.40
2019-04-30T07:20:12.864Z,90.10
2019-04-30T07:22:52.407Z,90.40
2019-04-30T07:25:28.935Z,90.40
2019-04-30T07:28:06.522Z,90.40
2019-04-30T07:30:42.552Z,90.90
2019-04-30T07:33:22.320Z,90.70
2019-04-30T07:36:03.270Z,90.70
2019-04-30T07:38:51.719Z,90.80
2019-04-30T07:41:20.965Z,90.90
2019-04-30T07:43:56.563Z,90.70
2019-04-30T07:46:35.275Z,91.00
2019-04-30T07:49:13.642Z,90.80
2019-04-30T07:51:52.750Z,91.10
2019-04-30T07:54:34.564Z,91.20
2019-04-30T07:57:22.766Z,91.00
2019-04-30T08:00:09.652Z,91.00
2019-04-30T08:02:45.698Z,90.80
2019-04-30T08:05:29.913Z,90.80
2019-04-30T08:08:20.196Z,91.00
2019-04-30T08:10:44.171Z,91.00
2019-04-30T08:13:24.779Z,91.40
2019-04-30T08:16:00.807Z,91.30
2019-04-30T08:18:40.247Z,91.30
2019-04-30T08:21:19.052Z,91.60
2019-04-30T08:23:54.290Z,91.90
2019-04-30T08:26:28.707Z,91.90
2019-04-30T08:29:17.034Z,91.70
2019-04-30T08:31:54.404Z,91.70
2019-04-30T08:34:31.291Z,91.80
2019-04-30T08:37:17.024Z,91.90
2019-04-30T08:39:53.104Z,92.10
2019-04-30T08:42:33.892Z,92.10
2019-04-30T08:45:11.597Z,92.00
2019-04-30T08:47:50.522Z,92.00
2019-04-30T08:50:30.982Z,92.00
2019-04-30T08:53:07.752Z,92.20
2019-04-30T08:55:44.680Z,92.20
2019-04-30T08:58:20.588Z,92.40
2019-04-30T09:01:01.344Z,92.10
2019-04-30T09:03:41.022Z,91.80
2019-04-30T09:06:19.415Z,92.00
2019-04-30T09:08:54.460Z,92.40
2019-04-30T09:11:38.554Z,92.00
2019-04-30T09:14:08.760Z,91.60
2019-04-30T09:16:49.473Z,91.80
2019-04-30T09:19:26.218Z,92.30
2019-04-30T09:22:12.370Z,92.30
2019-04-30T09:24:40.495Z,92.00
2019-04-30T09:27:16.339Z,92.40
2019-04-30T09:29:52.539Z,92.50
2019-04-30T09:32:29.145Z,92.60
2019-04-30T09:35:06.584Z,92.70
2019-04-30T09:37:42.422Z,93.10
2019-04-30T09:40:21.229Z,92.60
2019-04-30T09:42:56.204Z,92.20
2019-04-30T09:45:33.310Z,92.00
2019-04-30T09:48:12.536Z,92.30
2019-04-30T09:50:49.617Z,92.50
2019-04-30T09:53:31.325Z,92.00
2019-04-30T09:56:07.111Z,91.70
2019-04-30T09:58:44.364Z,91.60
2019-04-30T10:01:31.860Z,91.60
2019-04-30T10:04:10.967Z,92.40
2019-04-30T10:06:49.944Z,92.10
2019-04-30T10:09:25.690Z,92.00
2019-04-30T10:12:09.546Z,92.40
2019-04-30T10:14:49.485Z,92.60
2019-04-30T10:17:45.950Z,92.60
2019-04-30T10:20:22.798Z,92.70
2019-04-30T10:22:59.631Z,92.60
2019-04-30T10:25:35.212Z,92.30
2019-04-30T10:28:12.162Z,92.50
2019-04-30T10:30:50.842Z,92.30
2019-04-30T10:33:29.909Z,92.40
2019-04-30T10:36:07.143Z,92.40
2019-04-30T10:38:42.718Z,92.50
2019-04-30T10:41:18.816Z,92.70
2019-04-30T10:43:55.084Z,92.70
2019-04-30T10:46:32.531Z,92.80
2019-04-30T10:49:09.064Z,92.80
2019-04-30T10:51:47.325Z,92.60
2019-04-30T10:54:26.483Z,92.80
2019-04-30T10:57:02.132Z,92.80
2019-04-30T10:59:37.901Z,92.90
2019-04-30T11:02:14.070Z,92.70
2019-04-30T11:04:51.387Z,92.70
2019-04-30T11:07:31.115Z,92.80
2019-04-30T11:10:09.308Z,92.70
2019-04-30T11:12:47.152Z,92.60
2019-04-30T11:15:23.303Z,92.70
2019-04-30T11:18:05.231Z,92.60
2019-04-30T11:20:50.303Z,92.50
2019-04-30T11:23:26.481Z,92.70
2019-04-30T11:26:02.983Z,92.60
2019-04-30T11:28:49.452Z,92.80
2019-04-30T11:31:27.197Z,92.90
2019-04-30T11:34:06.181Z,92.70
2019-04-30T11:36:43.162Z,92.60
2019-04-30T11:39:20.471Z,92.70
2019-04-30T11:41:56.068Z,92.50
2019-04-30T11:44:33.940Z,92.80
2019-04-30T11:47:30.360Z,92.90
2019-04-30T11:50:08.118Z,92.90
2019-04-30T11:52:44.375Z,93.20
2019-04-30T11:55:22.501Z,92.90
2019-04-30T11:58:00.808Z,92.40
2019-04-30T12:03:39.383Z,92.70
2019-04-30T12:06:24.455Z,92.60
2019-04-30T12:09:08.973Z,92.90
2019-04-30T12:11:50.651Z,92.90
2019-04-30T12:14:29.718Z,92.80
2019-04-30T12:17:04.823Z,92.80
2019-04-30T12:19:51.544Z,92.70
2019-04-30T12:22:29.595Z,92.80
2019-04-30T12:25:18.731Z,92.80
2019-04-30T12:28:11.226Z,92.80
2019-04-30T12:30:54.536Z,92.70
2019-04-30T12:33:32.234Z,92.60
2019-04-30T12:36:09.447Z,92.70
2019-04-30T12:38:46.957Z,93.00
2019-04-30T12:41:25.793Z,93.00
2019-04-30T12:44:12.720Z,92.80
2019-04-30T12:46:50.406Z,92.70
2019-04-30T12:49:28.812Z,92.70
2019-04-30T12:52:16.077Z,92.30
2019-04-30T12:55:14.458Z,92.40
2019-04-30T12:57:58.740Z,92.10
2019-04-30T13:00:39.118Z,92.40
2019-04-30T13:06:03.205Z,92.80
2019-04-30T13:11:36.249Z,92.50
2019-04-30T13:17:03.929Z,92.70
2019-04-30T13:19:42.925Z,92.50
2019-04-30T13:22:21.929Z,92.80
2019-04-30T13:25:00.703Z,92.60
2019-04-30T13:27:41.801Z,92.60
2019-04-30T13:30:23.217Z,92.70
2019-04-30T13:33:04.919Z,92.60
2019-04-30T13:35:43.594Z,92.80
2019-04-30T13:38:30.928Z,92.60
2019-04-30T13:41:11.841Z,92.60
2019-04-30T13:43:51.675Z,93.20
2019-04-30T13:46:28.481Z,93.00
2019-04-30T13:49:04.867Z,93.00
2019-04-30T13:51:45.151Z,93.10
2019-04-30T13:54:31.262Z,92.60
2019-04-30T13:57:15.358Z,92.60
2019-04-30T13:59:58.654Z,92.80
2019-04-30T14:02:36.491Z,92.90
2019-04-30T14:05:16.546Z,92.60
2019-04-30T14:08:02.577Z,92.70
2019-04-30T14:10:43.582Z,92.70
2019-04-30T14:13:30.978Z,92.60
2019-04-30T14:16:13.185Z,92.50
2019-04-30T14:18:52.986Z,92.60
2019-04-30T14:21:35.407Z,92.90
2019-04-30T14:24:24.081Z,92.90
2019-04-30T14:27:16.267Z,92.90
2019-04-30T14:29:55.942Z,92.90
2019-04-30T14:35:28.727Z,92.80
2019-04-30T14:38:11.681Z,93.00
2019-04-30T14:40:56.281Z,92.90
2019-04-30T14:43:40.184Z,92.90
2019-04-30T14:46:20.860Z,92.60
2019-04-30T14:49:14.618Z,92.70
2019-04-30T14:51:52.249Z,92.60
2019-04-30T14:54:59.627Z,92.70
2019-04-30T14:57:39.256Z,93.30
2019-04-30T15:00:32.496Z,93.40
2019-04-30T15:03:20.262Z,93.30
2019-04-30T15:06:15.217Z,93.50
2019-04-30T15:08:52.968Z,93.60
2019-04-30T15:11:41.636Z,93.80
2019-04-30T15:14:29.901Z,93.50
2019-04-30T15:17:10.826Z,93.10
2019-04-30T15:19:59.241Z,93.30
2019-04-30T15:22:45.036Z,93.40
2019-04-30T15:28:19.171Z,93.50
2019-04-30T15:31:18.465Z,93.40
2019-04-30T15:34:05.164Z,93.30
2019-04-30T15:36:44.990Z,93.70
2019-04-30T15:39:36.285Z,93.50
2019-04-30T15:42:30.661Z,93.50
2019-04-30T15:45:21.033Z,93.40
2019-04-30T15:47:58.433Z,93.20
2019-04-30T15:50:43.814Z,93.40
2019-04-30T15:53:25.258Z,93.20
2019-04-30T15:56:03.152Z,93.10
2019-04-30T15:58:43.072Z,93.00
2019-04-30T16:01:20.951Z,93.00
2019-04-30T16:04:04.236Z,92.80
2019-04-30T16:06:41.543Z,92.70
2019-04-30T16:09:23.072Z,92.70
2019-04-30T16:12:07.097Z,92.70
2019-04-30T16:14:47.372Z,92.80
2019-04-30T16:17:24.693Z,92.90
2019-04-30T16:20:10.467Z,92.80
2019-04-30T16:22:51.172Z,92.70
2019-04-30T16:25:27.103Z,93.00
2019-04-30T16:28:19.578Z,93.30
2019-04-30T16:30:58.009Z,93.20
2019-04-30T16:33:39.356Z,93.20
2019-04-30T16:36:16.435Z,93.40
2019-04-30T16:39:11.535Z,93.80
2019-04-30T16:41:48.896Z,93.80
2019-04-30T16:44:26.036Z,94.00
2019-04-30T16:47:13.439Z,93.80
2019-04-30T16:49:54.583Z,93.80
2019-04-30T16:52:33.110Z,93.90
2019-04-30T16:55:15.879Z,93.90
2019-04-30T16:57:53.902Z,94.10
2019-04-30T17:00:30.836Z,94.30
2019-04-30T17:03:21.497Z,94.20
2019-04-30T17:06:01.123Z,94.10
2019-04-30T17:08:42.690Z,94.30
2019-04-30T17:11:22.384Z,94.40
2019-04-30T17:14:03.236Z,94.40
2019-04-30T17:16:39.276Z,94.40
2019-04-30T17:19:16.606Z,94.40
2019-04-30T17:21:57.906Z,94.50
2019-04-30T17:24:39.372Z,94.10
2019-04-30T17:27:21.573Z,94.10
2019-04-30T17:29:55.136Z,94.30
2019-04-30T17:32:31.316Z,94.30
2019-04-30T17:35:12.053Z,94.10
2019-04-30T17:37:52.095Z,94.20
2019-04-30T17:40:29.279Z,94.40
2019-04-30T17:43:08.173Z,94.40
2019-04-30T17:45:51.596Z,94.10
2019-04-30T17:48:30.905Z,94.30
2019-04-30T17:51:09.449Z,94.10
2019-04-30T17:53:45.887Z,94.00
2019-04-30T17:56:21.814Z,93.70
2019-04-30T17:59:00.339Z,93.70
2019-04-30T18:01:40.896Z,93.50
2019-04-30T18:04:18.590Z,93.80
2019-04-30T18:06:53.487Z,93.70
2019-04-30T18:09:31.025Z,93.70
2019-04-30T18:12:09.412Z,93.70
2019-04-30T18:14:45.543Z,93.80
2019-04-30T18:17:22.767Z,93.90
2019-04-30T18:20:01.004Z,93.70
2019-04-30T18:22:49.811Z,93.50
2019-04-30T18:25:33.690Z,93.30
2019-04-30T18:28:11.572Z,93.50
2019-04-30T18:30:51.576Z,93.40
2019-04-30T18:33:29.395Z,93.60
2019-04-30T18:36:05.614Z,93.90
2019-04-30T18:38:42.508Z,94.00
2019-04-30T18:41:19.357Z,93.80
2019-04-30T18:43:53.417Z,93.60
2019-04-30T18:46:29.282Z,93.50
2019-04-30T18:49:04.818Z,93.80
2019-04-30T18:51:42.667Z,93.90
2019-04-30T18:54:24.878Z,94.00
2019-04-30T18:57:03.757Z,93.70
2019-04-30T18:59:41.209Z,93.80
2019-04-30T19:02:19.007Z,93.90
2019-04-30T19:04:56.338Z,93.90
2019-04-30T19:07:31.867Z,93.70
2019-04-30T19:10:25.569Z,93.70
2019-04-30T19:13:03.875Z,93.70
2019-04-30T19:16:17.920Z,93.60
2019-04-30T19:18:36.064Z,93.30
2019-04-30T19:21:14.521Z,93.30
2019-04-30T19:23:50.528Z,93.50
2019-04-30T19:26:25.892Z,93.50
2019-04-30T19:29:02.034Z,93.50
2019-04-30T19:31:39.450Z,93.60
2019-04-30T19:34:16.907Z,93.50
2019-04-30T19:36:54.429Z,93.30
2019-04-30T19:39:34.537Z,93.50
2019-04-30T19:42:09.980Z,93.60
2019-04-30T19:44:57.219Z,93.80
2019-04-30T19:47:23.912Z,93.80
2019-04-30T19:50:00.649Z,93.50
2019-04-30T19:52:39.117Z,93.00
2019-04-30T19:55:13.258Z,92.90
2019-04-30T19:57:51.046Z,92.70
2019-04-30T20:00:31.052Z,92.60
2019-04-30T20:03:08.871Z,92.80
2019-04-30T20:05:49.884Z,92.70
2019-04-30T20:08:25.671Z,92.70
2019-04-30T20:11:02.961Z,92.70
2019-04-30T20:13:40.457Z,92.70
2019-04-30T20:16:16.252Z,92.90
2019-04-30T20:18:53.060Z,92.60
2019-04-30T20:21:44.975Z,92.60
2019-04-30T20:24:07.311Z,92.70
2019-04-30T20:26:42.811Z,92.50
2019-04-30T20:29:18.661Z,92.60
2019-04-30T20:31:55.360Z,92.40
2019-04-30T20:34:32.317Z,92.30
2019-04-30T20:37:09.381Z,92.60
2019-04-30T20:40:01.989Z,92.40
2019-04-30T20:42:40.007Z,92.70
2019-04-30T20:45:13.367Z,92.60
2019-04-30T20:47:49.622Z,92.40
2019-04-30T20:50:24.702Z,92.50
2019-04-30T20:53:00.400Z,92.60
2019-04-30T20:55:35.963Z,92.70
2019-04-30T20:58:11.168Z,92.60
2019-04-30T21:00:59.841Z,92.70
2019-04-30T21:03:24.440Z,92.70
2019-04-30T21:06:00.636Z,92.80
2019-04-30T21:08:36.071Z,92.70
2019-04-30T21:11:11.484Z,92.50
2019-04-30T21:13:46.730Z,92.40
2019-04-30T21:16:22.449Z,92.70
2019-04-30T21:19:00.262Z,92.50
2019-04-30T21:21:35.379Z,92.90
2019-04-30T21:24:10.655Z,92.70
2019-04-30T21:26:46.628Z,92.90
2019-04-30T21:29:22.234Z,92.30
2019-04-30T21:32:01.156Z,92.40
2019-04-30T21:34:40.834Z,92.30
2019-04-30T21:37:16.482Z,92.20
2019-04-30T21:39:52.295Z,92.40
2019-04-30T21:42:27.419Z,92.30
2019-04-30T21:45:03.576Z,92.70
2019-04-30T21:47:38.978Z,92.70
2019-04-30T21:50:14.694Z,92.10
2019-04-30T21:52:50.517Z,92.20
2019-04-30T21:55:25.805Z,92.10
2019-04-30T21:58:02.925Z,92.40
2019-04-30T22:00:39.832Z,91.80
2019-04-30T22:03:16.321Z,91.80
2019-04-30T22:05:51.687Z,91.90
2019-04-30T22:08:28.926Z,92.00
2019-04-30T22:11:04.544Z,92.40
2019-04-30T22:13:42.853Z,92.30
2019-04-30T22:16:18.501Z,92.30
2019-04-30T22:18:52.832Z,92.60
2019-04-30T22:21:30.364Z,92.60
2019-04-30T22:24:07.373Z,93.10
2019-04-30T22:26:44.417Z,93.00
2019-04-30T22:29:36.443Z,92.90
2019-04-30T22:32:00.930Z,92.90
2019-04-30T22:34:36.438Z,92.70
2019-04-30T22:37:11.939Z,92.80
2019-04-30T22:39:54.018Z,92.80
2019-04-30T22:42:36.838Z,92.60
2019-04-30T22:45:13.507Z,92.40
2019-04-30T22:47:50.399Z,92.80
2019-04-30T22:50:25.049Z,92.70
2019-04-30T22:53:00.758Z,92.70
2019-04-30T22:55:35.855Z,92.50
2019-04-30T22:58:11.273Z,92.50
2019-04-30T23:00:47.516Z,92.50
2019-04-30T23:03:27.194Z,92.60
2019-04-30T23:06:12.819Z,92.60
2019-04-30T23:08:48.478Z,92.50
2019-04-30T23:11:25.901Z,92.60
2019-04-30T23:14:01.385Z,92.80
2019-04-30T23:16:37.075Z,92.50
2019-04-30T23:19:12.472Z,92.50
2019-04-30T23:21:47.659Z,92.50
2019-04-30T23:24:25.114Z,92.40
2019-04-30T23:27:00.791Z,92.40
2019-04-30T23:29:38.661Z,92.40
2019-04-30T23:32:13.862Z,92.80
2019-04-30T23:34:49.513Z,92.40
2019-04-30T23:37:25.235Z,92.50
2019-04-30T23:40:01.866Z,92.40
2019-04-30T23:42:37.465Z,92.60
2019-04-30T23:45:13.494Z,92.40
2019-04-30T23:47:50.861Z,92.50
2019-04-30T23:50:27.640Z,92.30
2019-04-30T23:53:02.807Z,92.00
2019-04-30T23:55:38.400Z,92.20
2019-04-30T23:58:13.536Z,92.20
